Time;durP1;ratioP1;P1;durP2;ratioP2;P2;SDS_P1;SDS_P2;PMS_P1;PMS_P2;Temp;Humidity;BMP_temperature;BMP_pressure;BME280_temperature;BME280_humidity;BME280_pressure;Samples;Min_cycle;Max_cycle;Signal;HPM_P1;HPM_P2
2021/01/02 00:02:37;;;;;;;33.67;17.73;;;0.60;99.90;;;;;;6212026;23;19992;-93
2021/01/02 00:05:05;;;;;;;30.07;16.17;;;0.60;99.90;;;;;;6174706;23;20001;-95
2021/01/02 00:07:43;;;;;;;30.93;16.57;;;0.60;99.90;;;;;;6212220;23;19992;-95
2021/01/02 00:10:14;;;;;;;31.97;17.33;;;0.60;99.90;;;;;;6211716;23;19981;-94
2021/01/02 00:13:30;;;;;;;30.80;16.30;;;0.70;99.90;;;;;;6211810;23;20013;-95
2021/01/02 00:16:08;;;;;;;30.90;17.00;;;0.70;99.90;;;;;;6180960;23;19982;-95
2021/01/02 00:19:02;;;;;;;26.83;15.27;;;0.70;99.90;;;;;;6211746;23;19977;-94
2021/01/02 00:21:29;;;;;;;28.63;15.13;;;0.80;99.90;;;;;;6208359;23;19993;-93
2021/01/02 00:24:04;;;;;;;31.27;16.87;;;0.80;99.90;;;;;;6212296;23;19989;-93
2021/01/02 00:26:38;;;;;;;27.90;15.63;;;0.80;99.90;;;;;;6211373;23;19986;-94
2021/01/02 00:29:11;;;;;;;27.33;15.43;;;0.80;99.90;;;;;;6211400;23;20037;-94
2021/01/02 00:31:39;;;;;;;;;;;0.80;99.90;;;;;;6205287;23;19993;-96
2021/01/02 00:34:39;;;;;;;28.27;14.90;;;0.80;99.90;;;;;;6211969;23;19888;-94
2021/01/02 00:37:19;;;;;;;30.50;16.00;;;0.80;99.90;;;;;;6206609;23;20016;-93
2021/01/02 00:40:16;;;;;;;28.23;15.53;;;0.80;99.90;;;;;;6234767;23;19985;-96
2021/01/02 00:42:44;;;;;;;27.57;15.27;;;0.80;99.90;;;;;;6229950;23;20032;-94
2021/01/02 00:45:13;;;;;;;25.37;14.93;;;0.80;99.90;;;;;;6211272;23;19985;-94
2021/01/02 00:47:41;;;;;;;29.67;15.27;;;0.80;99.90;;;;;;6211462;23;19985;-94
2021/01/02 00:50:10;;;;;;;29.60;16.03;;;0.80;99.90;;;;;;6211167;23;20024;-95
2021/01/02 00:52:45;;;;;;;27.57;14.70;;;0.80;99.90;;;;;;6210886;23;19985;-94
2021/01/02 00:55:22;;;;;;;27.03;15.67;;;0.80;99.90;;;;;;6210798;23;19988;-94
2021/01/02 00:58:00;;;;;;;27.97;15.67;;;0.80;99.90;;;;;;6211747;23;19981;-94
2021/01/02 01:00:32;;;;;;;31.43;15.37;;;0.80;99.90;;;;;;6210996;23;19981;-94
2021/01/02 01:03:05;;;;;;;28.13;15.63;;;0.80;99.90;;;;;;6211148;23;20000;-95
2021/01/02 01:05:38;;;;;;;27.07;15.67;;;0.90;99.90;;;;;;6211358;23;20048;-94
2021/01/02 01:08:07;;;;;;;26.77;15.60;;;0.90;99.90;;;;;;6210969;23;19989;-93
2021/01/02 01:10:35;;;;;;;28.50;15.60;;;0.90;99.90;;;;;;6211214;23;19985;-94
2021/01/02 01:13:07;;;;;;;27.50;16.10;;;0.90;99.90;;;;;;6210986;23;19989;-95
2021/01/02 01:15:34;;;;;;;27.37;15.43;;;0.90;99.90;;;;;;6211098;23;19996;-94
2021/01/02 01:17:59;;;;;;;29.33;15.87;;;0.90;99.90;;;;;;6210850;23;20012;-95
2021/01/02 01:20:27;;;;;;;28.90;15.60;;;0.90;99.90;;;;;;6211231;23;19993;-95
2021/01/02 01:23:10;;;;;;;29.03;15.40;;;0.90;99.90;;;;;;6211256;23;19989;-93
2021/01/02 01:26:03;;;;;;;29.23;15.60;;;0.90;99.90;;;;;;6211157;23;19985;-95
2021/01/02 01:28:32;;;;;;;28.17;16.00;;;0.90;99.90;;;;;;6210464;23;19989;-94
2021/01/02 01:31:01;;;;;;;24.50;15.10;;;0.80;99.90;;;;;;6211085;23;20012;-94
2021/01/02 01:33:29;;;;;;;27.83;16.10;;;0.90;99.90;;;;;;6210874;23;20021;-93
2021/01/02 01:36:01;;;;;;;29.30;15.37;;;0.90;99.90;;;;;;6206350;23;19985;-94
2021/01/02 01:38:28;;;;;;;28.25;16.27;;;0.90;99.90;;;;;;6210643;23;20048;-95
2021/01/02 01:41:11;;;;;;;27.60;16.30;;;0.90;99.90;;;;;;6210922;23;19985;-93
2021/01/02 01:44:10;;;;;;;31.17;17.30;;;0.90;99.90;;;;;;6210715;23;19997;-96
2021/01/02 01:47:03;;;;;;;24.20;13.20;;;0.90;99.90;;;;;;6210307;23;19989;-94
2021/01/02 01:49:31;;;;;;;24.02;14.00;;;0.90;99.90;;;;;;6210477;23;20089;-95
2021/01/02 01:52:12;;;;;;;26.47;14.00;;;1.00;99.90;;;;;;6210848;23;19993;-94
2021/01/02 01:54:57;;;;;;;28.10;14.73;;;1.00;99.90;;;;;;6210929;23;19985;-94
2021/01/02 01:57:25;;;;;;;29.10;16.10;;;1.00;99.90;;;;;;6210931;23;19981;-95
2021/01/02 01:59:56;;;;;;;26.07;14.93;;;1.00;99.90;;;;;;6209907;23;19985;-96
2021/01/02 02:02:48;;;;;;;24.58;13.75;;;1.00;99.90;;;;;;6210214;23;19985;-93
2021/01/02 02:05:17;;;;;;;26.23;14.47;;;1.00;99.90;;;;;;6209326;23;20048;-95
2021/01/02 02:07:47;;;;;;;25.70;14.47;;;1.00;99.90;;;;;;6210704;23;20011;-95
2021/01/02 02:10:32;;;;;;;22.87;13.10;;;1.10;99.90;;;;;;6209781;23;19996;-94
2021/01/02 02:13:15;;;;;;;25.90;15.60;;;1.10;99.90;;;;;;6210004;23;20053;-95
2021/01/02 02:15:52;;;;;;;26.30;14.33;;;1.10;99.90;;;;;;6210847;23;19981;-95
2021/01/02 02:18:26;;;;;;;27.60;15.63;;;1.00;99.90;;;;;;6210398;23;19985;-94
2021/01/02 02:20:57;;;;;;;24.57;14.00;;;1.00;99.90;;;;;;6210166;23;19985;-95
2021/01/02 02:23:34;;;;;;;24.33;14.20;;;1.00;99.90;;;;;;6210681;23;19999;-94
2021/01/02 02:26:15;;;;;;;27.97;14.93;;;1.10;99.90;;;;;;6210885;23;19989;-94
2021/01/02 02:28:50;;;;;;;24.37;14.13;;;1.00;99.90;;;;;;6210113;23;20278;-94
2021/01/02 02:31:17;;;;;;;25.30;14.20;;;1.00;99.90;;;;;;6210790;23;19985;-94
2021/01/02 02:34:13;;;;;;;25.93;15.17;;;1.00;99.90;;;;;;6235659;23;19992;-94
2021/01/02 02:36:42;;;;;;;27.90;15.63;;;0.90;99.90;;;;;;6182481;23;19981;-95
2021/01/02 02:39:10;;;;;;;27.67;15.33;;;1.00;99.90;;;;;;6209971;23;19985;-96
2021/01/02 02:41:48;;;;;;;27.27;14.80;;;1.00;99.90;;;;;;6210513;23;20032;-95
2021/01/02 02:44:20;;;;;;;27.67;14.97;;;1.00;99.90;;;;;;6210806;23;19996;-95
2021/01/02 02:46:47;;;;;;;24.47;14.40;;;1.00;99.90;;;;;;6210570;23;19985;-96
2021/01/02 02:49:23;;;;;;;28.07;15.17;;;0.90;99.90;;;;;;6210318;23;19993;-95
2021/01/02 02:52:01;;;;;;;24.77;13.50;;;0.90;99.90;;;;;;6235597;23;19996;-95
2021/01/02 02:54:26;;;;;;;25.57;14.13;;;1.00;99.90;;;;;;6210367;23;19996;-95
2021/01/02 02:56:53;;;;;;;26.80;14.77;;;0.90;99.90;;;;;;6210289;23;19984;-94
2021/01/02 02:59:19;;;;;;;27.20;15.60;;;0.90;99.90;;;;;;6210267;23;20038;-95
2021/01/02 03:01:48;;;;;;;26.10;14.67;;;0.90;99.90;;;;;;6210043;23;19985;-95
2021/01/02 03:04:15;;;;;;;26.10;15.37;;;1.00;99.90;;;;;;6210221;23;19981;-94
2021/01/02 03:06:42;;;;;;;26.07;14.97;;;0.90;99.90;;;;;;6210542;23;19993;-95
2021/01/02 03:09:12;;;;;;;27.97;15.23;;;1.00;99.90;;;;;;6209530;23;19985;-96
2021/01/02 03:11:41;;;;;;;27.27;15.87;;;1.00;99.90;;;;;;6210417;23;19996;-94
2021/01/02 03:14:07;;;;;;;28.63;16.27;;;1.00;99.90;;;;;;6210324;23;20144;-94
2021/01/02 03:16:33;;;;;;;27.40;15.47;;;1.00;99.90;;;;;;6235195;23;19985;-95
2021/01/02 03:19:03;;;;;;;26.03;16.13;;;1.00;99.90;;;;;;6211159;23;20032;-96
2021/01/02 03:21:29;;;;;;;30.03;16.90;;;1.00;99.90;;;;;;6212334;23;19985;-96
2021/01/02 03:24:01;;;;;;;29.97;17.20;;;1.00;99.90;;;;;;6212336;23;20013;-95
2021/01/02 03:26:27;;;;;;;30.05;17.40;;;1.00;99.90;;;;;;6212094;23;19997;-95
2021/01/02 03:28:53;;;;;;;29.47;17.57;;;0.90;99.90;;;;;;6209931;23;20024;-96
2021/01/02 03:31:19;;;;;;;30.73;17.10;;;0.90;99.90;;;;;;6212446;23;20005;-95
2021/01/02 03:33:46;;;;;;;30.47;16.30;;;0.90;99.90;;;;;;6211853;23;20020;-95
2021/01/02 03:36:12;;;;;;;30.80;16.80;;;0.90;99.90;;;;;;6212202;23;19985;-95
2021/01/02 03:38:39;;;;;;;31.70;16.70;;;0.90;99.90;;;;;;6211301;23;19985;-95
2021/01/02 03:41:05;;;;;;;32.10;17.40;;;0.90;99.90;;;;;;6210621;23;19985;-95
2021/01/02 03:43:31;;;;;;;28.93;16.77;;;0.90;99.90;;;;;;6212031;23;20009;-95
2021/01/02 03:45:56;;;;;;;29.63;17.17;;;0.90;99.90;;;;;;6206897;23;20001;-95
2021/01/02 03:48:23;;;;;;;30.13;16.70;;;0.90;99.90;;;;;;6211063;23;20007;-96
2021/01/02 03:50:48;;;;;;;29.00;16.33;;;0.90;99.90;;;;;;6211940;23;20008;-95
2021/01/02 03:53:14;;;;;;;30.37;16.57;;;0.90;99.90;;;;;;6211919;23;19989;-95
2021/01/02 03:55:44;;;;;;;29.87;16.17;;;0.90;99.90;;;;;;6237055;23;19985;-94
2021/01/02 03:58:10;;;;;;;29.50;16.30;;;0.90;99.90;;;;;;6210740;23;19985;-95
2021/01/02 04:00:36;;;;;;;29.53;16.20;;;0.90;99.90;;;;;;6210818;23;19985;-94
2021/01/02 04:03:02;;;;;;;29.60;17.10;;;0.90;99.90;;;;;;6211844;23;19993;-96
2021/01/02 04:05:28;;;;;;;25.00;14.80;;;0.90;99.90;;;;;;6208249;23;20008;-93
2021/01/02 04:07:54;;;;;;;28.00;14.97;;;0.90;99.90;;;;;;6212066;23;19993;-96
2021/01/02 04:10:20;;;;;;;27.93;16.00;;;1.00;99.90;;;;;;6211815;23;19989;-95
2021/01/02 04:12:46;;;;;;;27.50;15.10;;;0.90;99.90;;;;;;6212139;23;20017;-95
2021/01/02 04:15:12;;;;;;;28.73;15.57;;;0.80;99.90;;;;;;6211686;23;20183;-95
2021/01/02 04:17:37;;;;;;;28.30;16.33;;;0.80;99.90;;;;;;6212008;23;19989;-95
2021/01/02 04:20:05;;;;;;;30.90;16.53;;;0.80;99.90;;;;;;6211697;23;19981;-94
2021/01/02 04:22:32;;;;;;;28.73;16.03;;;0.80;99.90;;;;;;6211843;23;20000;-94
2021/01/02 04:24:59;;;;;;;29.37;15.67;;;0.90;99.90;;;;;;6210308;23;19996;-95
2021/01/02 04:27:25;;;;;;;31.43;16.73;;;0.80;99.90;;;;;;6211032;23;19989;-95
2021/01/02 04:29:51;;;;;;;31.07;16.70;;;0.80;99.90;;;;;;6210162;23;20011;-95
2021/01/02 04:32:18;;;;;;;30.83;15.83;;;0.80;99.90;;;;;;6211000;23;20059;-95
2021/01/02 04:34:44;;;;;;;32.50;17.80;;;0.70;99.90;;;;;;6208183;23;19985;-94
2021/01/02 04:37:10;;;;;;;28.03;16.30;;;0.80;99.90;;;;;;6210512;23;19985;-95
2021/01/02 04:39:35;;;;;;;28.83;17.10;;;0.80;99.90;;;;;;6211378;23;19986;-95
2021/01/02 04:42:01;;;;;;;31.73;17.50;;;0.80;99.90;;;;;;6211563;23;20049;-95
2021/01/02 04:44:28;;;;;;;28.57;16.77;;;0.80;99.90;;;;;;6211284;23;20001;-95
2021/01/02 04:46:56;;;;;;;29.13;16.33;;;0.80;99.90;;;;;;6211566;23;20013;-94
2021/01/02 04:49:22;;;;;;;29.33;16.50;;;0.80;99.90;;;;;;6211067;23;19997;-96
2021/01/02 04:51:48;;;;;;;29.10;16.63;;;0.80;99.90;;;;;;6210959;23;19989;-95
2021/01/02 04:54:15;;;;;;;32.47;17.40;;;0.90;99.90;;;;;;6211502;23;19985;-94
2021/01/02 04:56:41;;;;;;;28.10;16.40;;;0.80;99.90;;;;;;6211820;23;20005;-95
2021/01/02 04:59:11;;;;;;;29.00;16.60;;;0.90;99.90;;;;;;6211042;23;20016;-95
2021/01/02 05:01:41;;;;;;;28.97;16.97;;;0.80;99.90;;;;;;6211267;23;20083;-95
2021/01/02 05:04:10;;;;;;;30.63;17.43;;;0.90;99.90;;;;;;6211270;23;19988;-94
2021/01/02 05:06:36;;;;;;;36.43;19.80;;;0.80;99.90;;;;;;6211527;23;19992;-96
2021/01/02 05:09:06;;;;;;;34.23;19.43;;;0.80;99.90;;;;;;6210472;23;19992;-95
2021/01/02 05:11:39;;;;;;;40.17;20.03;;;0.70;99.90;;;;;;6211569;23;20002;-95
2021/01/02 05:14:06;;;;;;;39.13;21.50;;;0.70;99.90;;;;;;6211062;23;19986;-94
2021/01/02 05:16:39;;;;;;;39.87;21.60;;;0.80;99.90;;;;;;6210800;23;20016;-95
2021/01/02 05:19:09;;;;;;;42.57;21.40;;;0.70;99.90;;;;;;6210611;23;19985;-94
2021/01/02 05:21:37;;;;;;;45.47;22.33;;;0.60;99.90;;;;;;6211434;23;20012;-95
2021/01/02 05:24:12;;;;;;;44.87;21.40;;;0.70;99.90;;;;;;6211333;23;20001;-96
2021/01/02 05:26:58;;;;;;;47.67;22.50;;;0.70;99.90;;;;;;6210958;23;19988;-94
2021/01/02 05:29:31;;;;;;;45.77;22.17;;;0.70;99.90;;;;;;6210935;23;20015;-95
2021/01/02 05:31:58;;;;;;;45.90;22.07;;;0.70;99.90;;;;;;6211165;23;19989;-95
2021/01/02 05:34:26;;;;;;;43.03;20.77;;;0.70;99.90;;;;;;6210852;23;19982;-94
2021/01/02 05:37:06;;;;;;;45.70;21.40;;;0.70;99.90;;;;;;6207343;23;20036;-96
2021/01/02 05:39:50;;;;;;;54.50;24.70;;;0.80;99.90;;;;;;6210875;23;19993;-94
2021/01/02 05:42:20;;;;;;;57.00;23.77;;;0.70;99.90;;;;;;6210839;23;19985;-96
2021/01/02 05:44:49;;;;;;;48.57;22.73;;;0.70;99.90;;;;;;6211047;23;20011;-95
2021/01/02 11:51:52;;;;;;;25.65;14.65;;;1.60;99.90;;;;;;6187522;23;20029;-93
2021/01/02 11:57:32;;;;;;;29.70;15.97;;;1.70;99.90;;;;;;6223257;23;20091;-91
2021/01/02 12:02:45;;;;;;;28.53;15.60;;;1.70;99.90;;;;;;6133684;23;20025;-91
2021/01/02 12:05:11;;;;;;;26.53;14.47;;;1.70;99.90;;;;;;6178671;23;20004;-91
2021/01/02 12:07:37;;;;;;;26.47;14.87;;;1.70;99.90;;;;;;6182517;23;20015;-93
2021/01/02 12:10:05;;;;;;;25.10;14.23;;;1.70;99.90;;;;;;6183082;23;20052;-92
2021/01/02 12:15:21;;;;;;;24.97;14.60;;;1.60;99.90;;;;;;6200329;23;20076;-96
2021/01/02 13:15:09;;;;;;;29.87;15.70;;;1.60;99.90;;;;;;6097471;23;20025;-87
2021/01/02 15:12:58;;;;;;;;;;;;;;;;;;;;;
